TimeCDT,TemperatureF,Dew PointF,Humidity,Sea Level PressureIn,VisibilityMPH,Wind Direction,Wind SpeedMPH,Gust SpeedMPH,PrecipitationIn,Events,Conditions,WindDirDegrees,DateUTC
12:15 AM,48.2,46.4,93,30.02,5.0,Calm,Calm,-,N/A,,Clear,0,2013-05-11 05:15:00
12:35 AM,50.0,46.4,87,30.02,7.0,West,3.5,-,N/A,,Clear,260,2013-05-11 05:35:00
12:55 AM,50.0,48.2,94,30.02,7.0,West,3.5,-,N/A,,Clear,260,2013-05-11 05:55:00
1:15 AM,50.0,48.2,94,30.02,7.0,WSW,3.5,-,N/A,,Clear,250,2013-05-11 06:15:00
1:35 AM,51.8,48.2,88,30.01,10.0,WSW,3.5,-,N/A,,Clear,250,2013-05-11 06:35:00
1:55 AM,50.0,46.4,87,30.01,7.0,WSW,3.5,-,N/A,,Clear,240,2013-05-11 06:55:00
2:15 AM,48.2,46.4,93,30.00,7.0,SW,3.5,-,N/A,,Clear,230,2013-05-11 07:15:00
2:35 AM,46.4,44.6,93,30.00,5.0,SW,3.5,-,N/A,,Clear,230,2013-05-11 07:35:00
2:55 AM,46.4,44.6,93,30.01,4.0,SSW,3.5,-,N/A,,Clear,210,2013-05-11 07:55:00
3:15 AM,46.4,44.6,93,30.01,4.0,SSW,4.6,-,N/A,,Clear,200,2013-05-11 08:15:00
3:35 AM,48.2,46.4,93,30.00,5.0,SSW,4.6,-,N/A,,Clear,200,2013-05-11 08:35:00
3:55 AM,48.2,46.4,93,30.00,7.0,SW,6.9,-,N/A,,Clear,220,2013-05-11 08:55:00
4:15 AM,48.2,46.4,93,30.00,7.0,SSW,6.9,-,N/A,,Clear,210,2013-05-11 09:15:00
4:35 AM,48.2,46.4,93,29.99,7.0,SW,5.8,-,N/A,,Clear,220,2013-05-11 09:35:00
4:55 AM,48.2,46.4,93,29.98,7.0,SSW,5.8,-,N/A,,Clear,210,2013-05-11 09:55:00
5:15 AM,48.2,46.4,93,29.98,5.0,SSW,5.8,-,N/A,,Clear,210,2013-05-11 10:15:00
5:35 AM,48.2,46.4,93,29.97,7.0,SW,6.9,-,N/A,,Clear,220,2013-05-11 10:35:00
5:55 AM,48.2,46.4,93,29.97,7.0,SW,8.1,-,N/A,,Clear,220,2013-05-11 10:55:00
6:15 AM,48.2,46.4,93,29.97,5.0,SW,8.1,-,N/A,,Clear,220,2013-05-11 11:15:00
6:35 AM,50.0,46.4,87,29.97,7.0,SW,8.1,-,N/A,,Scattered Clouds,220,2013-05-11 11:35:00
6:55 AM,51.8,48.2,88,29.97,7.0,SW,10.4,-,N/A,,Mostly Cloudy,220,2013-05-11 11:55:00
7:15 AM,51.8,48.2,88,29.98,10.0,West,8.1,16.1,N/A,,Mostly Cloudy,270,2013-05-11 12:15:00
7:35 AM,51.8,48.2,88,29.98,10.0,West,10.4,-,N/A,,Mostly Cloudy,270,2013-05-11 12:35:00
7:55 AM,53.6,50.0,88,29.98,10.0,WNW,11.5,17.3,N/A,,Mostly Cloudy,290,2013-05-11 12:55:00
8:15 AM,55.4,48.2,77,29.98,10.0,WNW,15.0,-,N/A,,Scattered Clouds,300,2013-05-11 13:15:00
8:35 AM,55.4,48.2,77,29.99,10.0,NW,18.4,27.6,N/A,,Clear,320,2013-05-11 13:35:00
8:55 AM,57.2,46.4,67,30.00,10.0,NNW,19.6,28.8,N/A,,Clear,330,2013-05-11 13:55:00
9:15 AM,57.2,44.6,63,30.01,10.0,NW,17.3,26.5,N/A,,Clear,320,2013-05-11 14:15:00
9:35 AM,57.2,42.8,59,30.01,10.0,NW,17.3,27.6,N/A,,Clear,320,2013-05-11 14:35:00
9:55 AM,55.4,35.6,47,30.01,10.0,NNW,19.6,28.8,N/A,,Clear,330,2013-05-11 14:55:00
10:15 AM,57.2,30.2,36,30.02,10.0,NNW,24.2,32.2,N/A,,Clear,330,2013-05-11 15:15:00
10:35 AM,57.2,30.2,36,30.03,10.0,NNW,19.6,36.8,N/A,,Clear,340,2013-05-11 15:35:00
10:55 AM,59.0,33.8,39,30.04,10.0,NW,18.4,27.6,N/A,,Clear,320,2013-05-11 15:55:00
11:15 AM,57.2,35.6,44,30.04,10.0,NNW,24.2,29.9,N/A,,Clear,340,2013-05-11 16:15:00
11:35 AM,59.0,35.6,42,30.05,10.0,NNW,18.4,27.6,N/A,,Clear,330,2013-05-11 16:35:00
11:55 AM,59.0,32.0,36,30.05,10.0,NNW,25.3,35.7,N/A,,Clear,330,2013-05-11 16:55:00
12:15 PM,59.0,32.0,36,30.05,10.0,NW,17.3,29.9,N/A,,Clear,320,2013-05-11 17:15:00
12:35 PM,59.0,28.4,31,30.06,10.0,NW,21.9,32.2,N/A,,Clear,320,2013-05-11 17:35:00
12:55 PM,59.0,28.4,31,30.06,10.0,NNW,25.3,31.1,N/A,,Clear,340,2013-05-11 17:55:00
1:15 PM,59.0,28.4,31,30.06,10.0,NW,23.0,33.4,N/A,,Clear,320,2013-05-11 18:15:00
1:35 PM,59.0,30.2,34,30.07,10.0,NW,23.0,33.4,N/A,,Clear,320,2013-05-11 18:35:00
1:55 PM,59.0,28.4,31,30.08,10.0,WNW,26.5,34.5,N/A,,Clear,300,2013-05-11 18:55:00
2:15 PM,59.0,28.4,31,30.08,10.0,NW,27.6,39.1,N/A,,Clear,310,2013-05-11 19:15:00
2:35 PM,57.2,28.4,33,30.09,10.0,NW,24.2,33.4,N/A,,Scattered Clouds,320,2013-05-11 19:35:00
2:55 PM,60.8,28.4,29,30.09,10.0,WNW,27.6,34.5,N/A,,Scattered Clouds,300,2013-05-11 19:55:00
3:15 PM,60.8,28.4,29,30.09,10.0,NW,24.2,33.4,N/A,,Mostly Cloudy,320,2013-05-11 20:15:00
3:35 PM,57.2,28.4,33,30.10,10.0,NW,18.4,28.8,N/A,,Mostly Cloudy,320,2013-05-11 20:35:00
4:15 PM,59.0,26.6,29,30.10,10.0,WNW,21.9,36.8,N/A,,Scattered Clouds,300,2013-05-11 21:15:00
4:35 PM,59.0,26.6,29,30.11,10.0,NW,25.3,31.1,N/A,,Mostly Cloudy,310,2013-05-11 21:35:00
4:55 PM,57.2,26.6,31,30.11,10.0,NW,21.9,32.2,N/A,,Mostly Cloudy,320,2013-05-11 21:55:00
5:15 PM,57.2,24.8,29,30.11,10.0,NW,18.4,28.8,N/A,,Scattered Clouds,320,2013-05-11 22:15:00
5:35 PM,57.2,24.8,29,30.11,10.0,NNW,21.9,28.8,N/A,,Scattered Clouds,330,2013-05-11 22:35:00
5:55 PM,57.2,21.2,25,30.12,10.0,WNW,23.0,35.7,N/A,,Scattered Clouds,300,2013-05-11 22:55:00
6:15 PM,57.2,21.2,25,30.12,10.0,NW,20.7,27.6,N/A,,Scattered Clouds,320,2013-05-11 23:15:00
6:35 PM,57.2,24.8,29,30.12,10.0,NW,13.8,23.0,N/A,,Clear,320,2013-05-11 23:35:00
6:55 PM,55.4,23.0,29,30.12,10.0,NW,17.3,-,N/A,,Scattered Clouds,310,2013-05-11 23:55:00
7:15 PM,55.4,23.0,29,30.13,10.0,NW,15.0,-,N/A,,Scattered Clouds,310,2013-05-12 00:15:00
7:35 PM,53.6,24.8,33,30.13,10.0,NW,11.5,18.4,N/A,,Scattered Clouds,310,2013-05-12 00:35:00
7:55 PM,53.6,24.8,33,30.13,10.0,NW,11.5,17.3,N/A,,Clear,310,2013-05-12 00:55:00
8:15 PM,51.8,26.6,38,30.14,10.0,WNW,9.2,-,N/A,,Clear,300,2013-05-12 01:15:00
8:35 PM,50.0,24.8,37,30.14,10.0,NW,11.5,-,N/A,,Clear,310,2013-05-12 01:35:00
9:15 PM,48.2,24.8,40,30.15,10.0,WNW,10.4,-,N/A,,Clear,300,2013-05-12 02:15:00
9:35 PM,48.2,24.8,40,30.16,10.0,WNW,8.1,-,N/A,,Clear,300,2013-05-12 02:35:00
9:55 PM,48.2,24.8,40,30.16,10.0,WNW,8.1,-,N/A,,Clear,290,2013-05-12 02:55:00
10:15 PM,48.2,24.8,40,30.16,10.0,West,8.1,-,N/A,,Clear,280,2013-05-12 03:15:00
10:35 PM,46.4,24.8,43,30.16,10.0,West,6.9,-,N/A,,Clear,280,2013-05-12 03:35:00
10:55 PM,46.4,24.8,43,30.16,10.0,WNW,6.9,-,N/A,,Clear,290,2013-05-12 03:55:00
11:15 PM,44.6,24.8,46,30.17,10.0,West,6.9,-,N/A,,Clear,280,2013-05-12 04:15:00
11:35 PM,46.4,24.8,43,30.17,10.0,WNW,8.1,-,N/A,,Clear,290,2013-05-12 04:35:00
11:55 PM,44.6,24.8,46,30.17,10.0,WNW,8.1,-,N/A,,Clear,290,2013-05-12 04:55:00